createdAt,value
2019-03-06T00:01:25.886Z,3.87
2019-03-06T00:03:54.582Z,5.63
2019-03-06T00:06:23.653Z,5.10
2019-03-06T00:08:52.639Z,4.13
2019-03-06T00:11:21.343Z,4.93
2019-03-06T00:13:55.514Z,6.23
2019-03-06T00:16:24.383Z,5.50
2019-03-06T00:18:54.275Z,5.13
2019-03-06T00:21:28.981Z,5.37
2019-03-06T00:23:57.720Z,5.23
2019-03-06T00:26:28.002Z,6.83
2019-03-06T00:28:57.264Z,5.07
2019-03-06T00:31:29.805Z,4.13
2019-03-06T00:34:01.292Z,6.73
2019-03-06T00:36:30.235Z,3.77
2019-03-06T00:39:00.373Z,8.73
2019-03-06T00:41:30.651Z,6.47
2019-03-06T00:43:59.667Z,5.50
2019-03-06T00:46:28.427Z,10.20
2019-03-06T00:48:57.071Z,6.47
2019-03-06T00:51:25.766Z,4.20
2019-03-06T00:53:54.611Z,5.47
2019-03-06T00:56:23.541Z,3.87
2019-03-06T00:58:52.199Z,3.60
2019-03-06T01:01:20.927Z,4.17
2019-03-06T01:03:49.616Z,6.73
2019-03-06T01:06:18.249Z,6.53
2019-03-06T01:08:47.401Z,4.83
2019-03-06T01:11:16.103Z,4.87
2019-03-06T01:13:44.726Z,4.43
2019-03-06T01:16:13.483Z,2.40
2019-03-06T01:18:43.223Z,7.27
2019-03-06T01:21:12.319Z,3.83
2019-03-06T01:23:41.055Z,6.53
2019-03-06T01:26:09.753Z,8.73
2019-03-06T01:28:38.365Z,3.50
2019-03-06T01:31:07.117Z,3.13
2019-03-06T01:33:43.756Z,6.07
2019-03-06T01:36:16.839Z,4.77
2019-03-06T01:38:52.899Z,3.87
2019-03-06T01:41:25.592Z,5.13
2019-03-06T01:43:58.652Z,7.27
2019-03-06T01:46:27.349Z,4.07
2019-03-06T01:48:56.022Z,4.10
2019-03-06T01:51:24.666Z,8.23
2019-03-06T01:53:53.484Z,4.97
2019-03-06T01:56:23.875Z,4.57
2019-03-06T01:58:52.497Z,7.77
2019-03-06T02:01:21.134Z,6.33
2019-03-06T02:03:49.836Z,10.57
2019-03-06T02:06:18.866Z,10.83
2019-03-06T02:08:47.686Z,5.77
2019-03-06T02:11:16.846Z,9.13
2019-03-06T02:13:45.419Z,7.47
2019-03-06T02:16:14.115Z,7.73
2019-03-06T02:18:43.052Z,7.83
2019-03-06T02:21:11.756Z,9.13
2019-03-06T02:23:40.466Z,8.73
2019-03-06T02:26:09.195Z,10.40
2019-03-06T02:28:37.816Z,8.63
2019-03-06T02:31:07.017Z,9.40
2019-03-06T02:33:35.763Z,13.87
2019-03-06T02:36:04.840Z,10.23
2019-03-06T02:38:33.406Z,9.40
2019-03-06T02:41:02.148Z,9.97
2019-03-06T02:43:30.773Z,14.13
2019-03-06T02:45:59.396Z,9.40
2019-03-06T02:48:28.264Z,8.17
2019-03-06T02:50:56.909Z,9.40
2019-03-06T02:53:25.783Z,10.83
2019-03-06T02:55:54.723Z,9.60
2019-03-06T02:58:25.063Z,14.73
2019-03-06T03:01:05.034Z,12.67
2019-03-06T03:03:51.597Z,11.63
2019-03-06T03:06:21.964Z,12.37
2019-03-06T03:08:50.603Z,18.90
2019-03-06T03:11:19.230Z,14.87
2019-03-06T03:13:47.907Z,16.53
2019-03-06T03:16:16.476Z,13.63
2019-03-06T03:18:45.174Z,15.67
2019-03-06T03:21:13.908Z,16.70
2019-03-06T03:23:42.821Z,15.47
2019-03-06T03:26:11.442Z,15.80
2019-03-06T03:28:40.116Z,17.20
2019-03-06T03:31:09.246Z,15.33
2019-03-06T03:33:37.769Z,19.40
2019-03-06T03:36:06.521Z,16.70
2019-03-06T03:38:35.146Z,15.40
2019-03-06T03:41:03.778Z,21.13
2019-03-06T03:43:33.886Z,19.00
2019-03-06T03:46:02.524Z,21.77
2019-03-06T03:48:31.155Z,19.07
2019-03-06T03:50:59.759Z,23.17
2019-03-06T03:53:28.454Z,23.77
2019-03-06T03:55:57.105Z,21.87
2019-03-06T03:58:26.276Z,21.40
2019-03-06T04:00:55.118Z,19.00
2019-03-06T04:03:24.020Z,21.17
2019-03-06T04:05:52.685Z,22.07
2019-03-06T04:08:21.400Z,21.70
2019-03-06T04:10:50.504Z,22.50
2019-03-06T04:13:19.190Z,24.80
2019-03-06T04:15:47.988Z,22.53
2019-03-06T04:18:17.634Z,24.67
2019-03-06T04:20:46.544Z,26.03
2019-03-06T04:23:15.214Z,27.57
2019-03-06T04:25:51.954Z,24.33
2019-03-06T04:28:20.352Z,27.77
2019-03-06T04:30:50.546Z,30.90
2019-03-06T04:33:19.185Z,26.77
2019-03-06T04:35:47.931Z,29.47
2019-03-06T04:38:16.622Z,26.27
2019-03-06T04:40:45.218Z,25.20
2019-03-06T04:43:13.815Z,23.90
2019-03-06T04:45:42.437Z,27.27
2019-03-06T04:48:13.803Z,26.10
2019-03-06T04:50:42.467Z,30.83
2019-03-06T04:53:15.513Z,30.03
2019-03-06T04:55:44.143Z,30.50
2019-03-06T04:58:14.362Z,32.60
2019-03-06T05:00:42.993Z,30.20
2019-03-06T05:03:11.634Z,26.83
2019-03-06T05:05:43.507Z,25.50
2019-03-06T05:08:12.405Z,24.40
2019-03-06T05:10:47.257Z,26.20
2019-03-06T05:13:17.541Z,24.67
2019-03-06T05:15:46.253Z,26.87
2019-03-06T05:18:25.270Z,25.10
2019-03-06T05:20:53.973Z,26.93
2019-03-06T05:23:22.616Z,23.73
2019-03-06T05:25:51.223Z,26.93
2019-03-06T05:28:19.864Z,24.50
2019-03-06T05:30:48.434Z,24.97
2019-03-06T05:33:17.612Z,27.37
2019-03-06T05:36:10.113Z,26.50
2019-03-06T05:39:02.857Z,27.47
2019-03-06T05:41:31.441Z,24.63
2019-03-06T05:44:00.162Z,22.13
2019-03-06T05:46:28.756Z,24.83
2019-03-06T05:48:57.395Z,25.97
2019-03-06T05:51:27.359Z,21.87
2019-03-06T05:53:56.227Z,28.07
2019-03-06T05:56:27.927Z,30.67
2019-03-06T05:58:57.786Z,25.23
2019-03-06T06:01:26.457Z,26.90
2019-03-06T06:04:02.504Z,21.80
2019-03-06T06:06:31.160Z,25.63
2019-03-06T06:08:59.814Z,22.07
2019-03-06T06:11:28.380Z,25.10
2019-03-06T06:13:57.265Z,24.03
2019-03-06T06:16:25.988Z,29.90
2019-03-06T06:18:54.702Z,24.47
2019-03-06T06:21:28.090Z,19.63
2019-03-06T06:23:58.748Z,25.83
2019-03-06T06:26:30.404Z,22.67
2019-03-06T06:28:59.356Z,18.97
2019-03-06T06:31:43.731Z,22.17
2019-03-06T06:34:16.428Z,19.00
2019-03-06T06:36:45.212Z,21.67
2019-03-06T06:39:24.964Z,21.90
2019-03-06T06:41:53.610Z,23.63
2019-03-06T06:44:26.588Z,23.10
2019-03-06T06:46:55.344Z,21.37
2019-03-06T06:49:24.041Z,21.53
2019-03-06T06:52:03.955Z,24.00
2019-03-06T06:54:41.598Z,18.77
2019-03-06T06:57:35.678Z,21.80
2019-03-06T07:00:23.481Z,20.07
2019-03-06T07:03:22.380Z,17.50
2019-03-06T07:05:58.895Z,18.90
2019-03-06T07:08:31.865Z,19.63
2019-03-06T07:11:02.210Z,18.20
2019-03-06T07:13:35.421Z,16.63
2019-03-06T07:16:28.355Z,17.10
2019-03-06T07:19:12.526Z,20.53
2019-03-06T07:21:57.939Z,23.10
2019-03-06T07:24:43.837Z,16.50
2019-03-06T07:27:21.053Z,16.10
2019-03-06T07:29:51.404Z,20.63
2019-03-06T07:32:29.232Z,19.40
2019-03-06T07:35:51.094Z,19.23
2019-03-06T07:38:20.386Z,16.50
2019-03-06T07:41:06.799Z,20.23
2019-03-06T07:43:37.185Z,20.03
2019-03-06T07:46:25.607Z,15.27
2019-03-06T07:49:00.463Z,16.03
2019-03-06T07:51:31.987Z,13.17
2019-03-06T07:54:04.570Z,14.87
2019-03-06T07:56:35.350Z,18.40
2019-03-06T07:59:07.685Z,19.03
2019-03-06T08:01:39.599Z,14.40
2019-03-06T08:04:15.568Z,14.10
2019-03-06T08:06:52.034Z,16.80
2019-03-06T08:09:21.173Z,16.37
2019-03-06T08:12:00.924Z,19.30
2019-03-06T08:14:40.341Z,18.43
2019-03-06T08:17:30.385Z,17.30
2019-03-06T08:20:17.195Z,20.23
2019-03-06T08:22:56.830Z,18.17
2019-03-06T08:25:28.663Z,19.20
2019-03-06T08:27:57.384Z,20.23
2019-03-06T08:30:28.186Z,17.17
2019-03-06T08:32:56.877Z,17.17
2019-03-06T08:35:25.575Z,17.97
2019-03-06T08:37:55.835Z,16.60
2019-03-06T08:40:24.555Z,18.30
2019-03-06T08:42:53.185Z,21.43
2019-03-06T08:45:29.577Z,15.13
2019-03-06T08:48:02.187Z,16.37
2019-03-06T08:50:34.737Z,19.20
2019-03-06T08:53:13.621Z,18.67
2019-03-06T08:55:45.298Z,16.37
2019-03-06T08:58:18.781Z,15.70
2019-03-06T09:00:52.709Z,17.80
2019-03-06T09:03:27.569Z,14.93
2019-03-06T09:06:00.467Z,16.30
2019-03-06T09:08:32.363Z,14.20
2019-03-06T09:11:10.025Z,15.43
2019-03-06T09:13:43.055Z,16.70
2019-03-06T09:16:30.684Z,17.30
2019-03-06T09:19:09.829Z,15.57
2019-03-06T09:21:49.319Z,19.87
2019-03-06T09:24:22.672Z,15.47
2019-03-06T09:26:59.669Z,14.63
2019-03-06T09:29:42.248Z,16.60
2019-03-06T09:32:29.084Z,15.10
2019-03-06T09:35:01.880Z,14.37
2019-03-06T09:37:35.373Z,13.60
2019-03-06T09:40:11.879Z,12.77
2019-03-06T09:42:42.191Z,18.57
2019-03-06T09:45:22.001Z,12.00
2019-03-06T09:48:08.880Z,14.70
2019-03-06T09:50:45.416Z,8.03
2019-03-06T09:53:19.165Z,9.00
2019-03-06T09:55:52.718Z,8.33
2019-03-06T09:58:39.169Z,10.17
2019-03-06T10:01:15.512Z,8.13
2019-03-06T10:03:52.214Z,7.70
2019-03-06T10:06:22.501Z,7.33
2019-03-06T10:09:02.174Z,7.43
2019-03-06T10:11:50.552Z,6.73
2019-03-06T10:14:26.099Z,7.90
2019-03-06T10:17:02.881Z,7.23
2019-03-06T10:19:33.248Z,7.13
2019-03-06T10:22:03.555Z,6.73
2019-03-06T10:24:32.275Z,6.87
2019-03-06T10:27:05.741Z,6.70
2019-03-06T10:29:34.734Z,7.77
2019-03-06T10:32:05.357Z,6.80
2019-03-06T10:34:34.710Z,8.70
2019-03-06T10:39:32.338Z,4.63
2019-03-06T10:42:01.226Z,6.67
2019-03-06T10:44:31.711Z,6.70
2019-03-06T10:47:03.450Z,6.10
2019-03-06T10:49:33.322Z,9.17
2019-03-06T10:52:05.580Z,7.63
2019-03-06T10:54:37.897Z,7.90
2019-03-06T10:57:06.188Z,4.63
2019-03-06T10:59:35.282Z,4.83
2019-03-06T11:02:04.254Z,5.77
2019-03-06T11:04:35.032Z,6.60
2019-03-06T11:07:04.819Z,6.00
2019-03-06T11:09:34.019Z,6.27
2019-03-06T11:12:07.097Z,5.90
2019-03-06T11:14:36.210Z,5.43
2019-03-06T11:17:05.172Z,5.93
2019-03-06T11:19:38.418Z,5.33
2019-03-06T11:22:09.164Z,7.40
2019-03-06T11:24:38.098Z,3.87
2019-03-06T11:27:10.113Z,5.57
2019-03-06T11:29:44.277Z,6.40
2019-03-06T11:32:15.431Z,6.70
2019-03-06T11:34:45.006Z,6.83
2019-03-06T11:37:13.718Z,5.40
2019-03-06T11:39:42.380Z,3.93
2019-03-06T11:42:13.617Z,4.70
2019-03-06T11:44:42.581Z,4.57
2019-03-06T11:47:15.878Z,6.60
2019-03-06T11:49:45.008Z,4.73
2019-03-06T11:52:13.723Z,7.73
2019-03-06T11:54:48.122Z,5.57
2019-03-06T11:57:20.772Z,5.70
2019-03-06T11:59:51.031Z,6.40
2019-03-06T12:02:23.299Z,5.03
2019-03-06T12:04:54.605Z,8.07
2019-03-06T12:07:26.297Z,5.20
2019-03-06T12:09:55.013Z,5.27
2019-03-06T12:12:27.181Z,6.63
2019-03-06T12:14:56.077Z,5.73
2019-03-06T12:17:24.794Z,4.50
2019-03-06T12:19:53.743Z,8.23
2019-03-06T12:22:25.727Z,6.13
2019-03-06T12:24:59.960Z,5.37
2019-03-06T12:27:34.672Z,6.67
2019-03-06T12:30:04.872Z,7.47
2019-03-06T12:32:33.693Z,5.50
2019-03-06T12:35:04.990Z,6.27
2019-03-06T12:37:35.660Z,5.07
2019-03-06T12:40:12.359Z,6.70
2019-03-06T12:42:37.945Z,4.43
2019-03-06T12:45:13.596Z,3.10
2019-03-06T12:47:43.334Z,6.33
2019-03-06T12:50:14.816Z,2.90
2019-03-06T12:52:43.532Z,2.70
2019-03-06T12:55:12.987Z,2.30
2019-03-06T12:57:41.699Z,2.27
2019-03-06T13:00:23.023Z,5.13
2019-03-06T13:02:55.215Z,2.07
2019-03-06T13:05:29.021Z,3.80
2019-03-06T13:07:59.598Z,4.23
2019-03-06T13:10:28.861Z,2.00
2019-03-06T13:12:58.155Z,4.73
2019-03-06T13:15:29.206Z,4.40
2019-03-06T13:17:57.716Z,5.33
2019-03-06T13:20:29.697Z,3.63
2019-03-06T13:23:01.274Z,5.23
2019-03-06T13:25:32.947Z,2.13
2019-03-06T13:28:03.310Z,3.33
2019-03-06T13:30:48.360Z,5.07
2019-03-06T13:33:24.716Z,4.23
2019-03-06T13:35:53.697Z,2.73
2019-03-06T13:38:22.814Z,3.63
2019-03-06T13:40:56.170Z,1.97
2019-03-06T13:43:34.305Z,7.70
2019-03-06T13:46:03.580Z,2.80
2019-03-06T13:48:33.481Z,5.40
2019-03-06T13:51:05.768Z,1.73
2019-03-06T13:53:34.479Z,3.70
2019-03-06T13:56:03.279Z,3.43
2019-03-06T13:58:32.031Z,2.97
2019-03-06T14:01:01.481Z,3.33
2019-03-06T14:03:31.343Z,3.27
2019-03-06T14:06:00.803Z,4.80
2019-03-06T14:08:32.774Z,4.57
2019-03-06T14:11:01.417Z,3.07
2019-03-06T14:13:30.115Z,5.30
2019-03-06T14:16:00.800Z,2.90
2019-03-06T14:18:33.213Z,2.77
2019-03-06T14:21:01.388Z,2.20
2019-03-06T14:23:35.226Z,2.83
2019-03-06T14:26:06.823Z,3.33
2019-03-06T14:28:40.042Z,5.63
2019-03-06T14:31:10.782Z,2.73
2019-03-06T14:33:41.962Z,3.03
2019-03-06T14:36:12.444Z,3.50
2019-03-06T14:38:44.687Z,4.77
2019-03-06T14:41:15.726Z,3.00
2019-03-06T14:43:45.822Z,4.73
2019-03-06T14:46:21.372Z,2.60
2019-03-06T14:48:54.086Z,6.03
2019-03-06T14:51:26.347Z,5.73
2019-03-06T14:53:57.942Z,6.37
2019-03-06T14:56:32.358Z,6.80
2019-03-06T14:59:03.720Z,4.53
2019-03-06T15:01:36.614Z,4.67
2019-03-06T15:04:05.589Z,3.93
2019-03-06T15:06:35.554Z,4.57
2019-03-06T15:09:09.050Z,4.93
2019-03-06T15:11:37.938Z,5.07
2019-03-06T15:14:08.776Z,4.30
2019-03-06T15:16:37.614Z,4.70
2019-03-06T15:19:07.320Z,6.43
2019-03-06T15:21:36.672Z,5.27
2019-03-06T15:24:05.932Z,4.77
2019-03-06T15:26:34.760Z,6.30
2019-03-06T15:29:07.815Z,4.33
2019-03-06T15:31:38.690Z,7.37
2019-03-06T15:34:18.025Z,7.50
2019-03-06T15:36:49.656Z,6.30
2019-03-06T15:39:26.849Z,7.03
2019-03-06T15:42:00.249Z,9.13
2019-03-06T15:44:26.299Z,6.27
2019-03-06T15:47:06.100Z,5.30
2019-03-06T15:49:37.567Z,5.73
2019-03-06T15:52:16.604Z,5.23
2019-03-06T15:54:52.653Z,8.60
2019-03-06T15:57:23.950Z,8.57
2019-03-06T15:59:56.724Z,9.73
2019-03-06T16:02:31.348Z,5.37
2019-03-06T16:05:09.231Z,8.03
2019-03-06T16:07:38.298Z,8.67
2019-03-06T16:10:14.799Z,6.73
2019-03-06T16:12:52.994Z,5.80
2019-03-06T16:15:25.782Z,7.07
2019-03-06T16:17:59.431Z,7.63
2019-03-06T16:20:28.395Z,7.87
2019-03-06T16:23:09.222Z,8.07
2019-03-06T16:25:39.891Z,8.77
2019-03-06T16:28:08.488Z,6.73
2019-03-06T16:30:40.807Z,6.00
2019-03-06T16:33:10.628Z,10.87
2019-03-06T16:35:39.617Z,9.10
2019-03-06T16:38:13.371Z,5.53
2019-03-06T16:40:45.257Z,9.60
2019-03-06T16:43:15.432Z,5.37
2019-03-06T16:45:49.079Z,7.43
2019-03-06T16:48:18.162Z,5.80
2019-03-06T16:50:48.876Z,7.40
2019-03-06T16:53:20.701Z,6.60
2019-03-06T16:55:49.638Z,10.10
2019-03-06T16:58:28.570Z,6.13
2019-03-06T17:01:02.883Z,5.23
2019-03-06T17:03:33.279Z,6.30
2019-03-06T17:06:06.301Z,6.33
2019-03-06T17:08:44.285Z,4.67
2019-03-06T17:11:11.986Z,3.00
2019-03-06T17:13:46.797Z,6.40
2019-03-06T17:16:16.711Z,12.20
2019-03-06T17:18:45.752Z,4.63
2019-03-06T17:21:14.926Z,4.97
2019-03-06T17:23:46.883Z,2.87
2019-03-06T17:26:16.714Z,4.70
2019-03-06T17:28:48.583Z,6.03
2019-03-06T17:31:23.482Z,3.30
2019-03-06T17:33:59.687Z,4.30
2019-03-06T17:36:28.451Z,3.20
2019-03-06T17:38:58.973Z,4.00
2019-03-06T17:41:33.602Z,4.43
2019-03-06T17:44:05.272Z,8.30
2019-03-06T17:46:38.362Z,2.37
2019-03-06T17:49:07.687Z,3.77
2019-03-06T17:51:41.308Z,3.83
2019-03-06T17:54:13.731Z,2.93
2019-03-06T17:56:46.772Z,4.20
